createdAt,value
2019-02-09T00:00:25.018Z,3.00
2019-02-09T00:05:30.657Z,3.10
2019-02-09T00:10:36.793Z,3.30
2019-02-09T00:15:42.169Z,3.57
2019-02-09T00:20:47.470Z,3.30
2019-02-09T00:25:53.759Z,3.20
2019-02-09T00:30:59.276Z,3.20
2019-02-09T00:36:04.772Z,3.30
2019-02-09T00:41:10.064Z,3.30
2019-02-09T00:46:15.549Z,3.20
2019-02-09T00:51:21.123Z,2.90
2019-02-09T00:56:26.573Z,2.70
2019-02-09T01:01:31.766Z,2.80
2019-02-09T01:06:36.929Z,2.90
2019-02-09T01:11:42.104Z,2.87
2019-02-09T01:16:47.603Z,2.57
2019-02-09T01:21:53.640Z,2.50
2019-02-09T01:26:59.143Z,2.60
2019-02-09T01:32:04.466Z,2.60
2019-02-09T01:37:10.844Z,2.50
2019-02-09T01:42:16.640Z,1.87
2019-02-09T01:47:22.935Z,1.70
2019-02-09T01:52:28.061Z,2.00
2019-02-09T01:57:33.551Z,2.03
2019-02-09T02:02:38.716Z,2.10
2019-02-09T02:07:44.235Z,1.90
2019-02-09T02:12:49.795Z,1.67
2019-02-09T02:17:54.973Z,1.73
2019-02-09T02:23:00.613Z,1.90
2019-02-09T02:28:05.986Z,2.10
2019-02-09T02:33:11.184Z,2.03
2019-02-09T02:38:18.066Z,1.80
2019-02-09T02:43:23.346Z,1.90
2019-02-09T02:48:28.871Z,1.93
2019-02-09T02:53:34.023Z,2.30
2019-02-09T02:58:40.272Z,2.10
2019-02-09T03:03:45.432Z,2.23
2019-02-09T03:08:51.289Z,2.40
2019-02-09T03:13:56.513Z,2.33
2019-02-09T03:19:01.815Z,2.23
2019-02-09T03:24:07.409Z,2.40
2019-02-09T03:29:12.906Z,2.30
2019-02-09T03:34:18.984Z,2.50
2019-02-09T03:39:24.156Z,2.40
2019-02-09T03:44:29.646Z,2.37
2019-02-09T03:49:35.622Z,2.30
2019-02-09T03:54:41.759Z,2.23
2019-02-09T03:59:46.940Z,2.03
2019-02-09T04:04:52.099Z,2.03
2019-02-09T04:09:57.730Z,2.60
2019-02-09T04:15:03.009Z,2.50
2019-02-09T04:20:10.461Z,2.50
2019-02-09T04:25:17.828Z,2.43
2019-02-09T04:30:25.056Z,2.73
2019-02-09T04:35:30.292Z,2.67
2019-02-09T04:40:37.096Z,2.30
2019-02-09T04:45:42.264Z,2.37
2019-02-09T04:50:47.889Z,2.30
2019-02-09T04:55:53.539Z,2.50
2019-02-09T05:00:59.154Z,2.70
2019-02-09T05:06:04.732Z,2.40
2019-02-09T05:11:10.260Z,2.57
2019-02-09T05:16:15.745Z,2.53
2019-02-09T05:21:23.302Z,2.43
2019-02-09T05:26:28.477Z,2.77
2019-02-09T05:31:33.706Z,3.00
2019-02-09T05:36:39.385Z,2.60
2019-02-09T05:41:44.839Z,2.70
2019-02-09T05:46:50.024Z,2.53
2019-02-09T05:51:55.565Z,2.23
2019-02-09T05:57:00.759Z,2.40
2019-02-09T06:02:06.058Z,2.37
2019-02-09T06:07:11.488Z,2.30
2019-02-09T06:12:17.001Z,2.60
2019-02-09T06:17:22.185Z,2.10
2019-02-09T06:22:27.720Z,2.10
2019-02-09T06:27:33.606Z,1.97
2019-02-09T06:32:38.816Z,2.33
2019-02-09T06:37:43.992Z,2.10
2019-02-09T06:42:49.371Z,2.10
2019-02-09T06:47:56.526Z,2.20
2019-02-09T06:53:01.726Z,2.27
2019-02-09T06:58:07.000Z,2.10
2019-02-09T07:03:12.197Z,1.90
2019-02-09T07:08:18.509Z,2.00
2019-02-09T07:13:24.056Z,2.00
2019-02-09T07:18:29.261Z,2.03
2019-02-09T07:23:34.377Z,1.87
2019-02-09T07:28:39.614Z,1.93
2019-02-09T07:33:44.985Z,2.00
2019-02-09T07:38:50.176Z,1.80
2019-02-09T07:43:55.536Z,1.87
2019-02-09T07:49:00.717Z,1.90
2019-02-09T07:54:05.947Z,1.70
2019-02-09T07:59:11.537Z,2.10
2019-02-09T08:04:17.864Z,1.90
2019-02-09T08:09:23.908Z,1.70
2019-02-09T08:14:29.388Z,1.60
2019-02-09T08:19:34.738Z,1.60
2019-02-09T08:24:41.741Z,1.60
2019-02-09T08:29:47.911Z,1.70
2019-02-09T08:34:53.226Z,1.70
2019-02-09T08:39:58.403Z,1.57
2019-02-09T08:45:04.273Z,1.70
2019-02-09T08:50:13.471Z,1.80
2019-02-09T08:55:19.200Z,1.50
2019-02-09T09:00:27.924Z,1.50
2019-02-09T09:05:33.633Z,1.70
2019-02-09T09:10:38.910Z,1.60
2019-02-09T09:15:46.861Z,1.50
2019-02-09T09:20:55.767Z,1.37
2019-02-09T09:26:00.947Z,1.30
2019-02-09T09:31:06.507Z,1.33
2019-02-09T09:36:11.727Z,1.40
2019-02-09T09:41:16.918Z,1.50
2019-02-09T09:46:23.995Z,1.20
2019-02-09T09:51:30.309Z,1.27
2019-02-09T09:56:35.642Z,1.20
2019-02-09T10:01:40.819Z,1.30
2019-02-09T10:06:47.023Z,1.17
2019-02-09T10:11:52.202Z,1.27
2019-02-09T10:16:57.381Z,1.07
2019-02-09T10:22:03.017Z,1.10
2019-02-09T10:27:08.627Z,1.13
2019-02-09T10:32:14.550Z,1.20
2019-02-09T10:37:20.446Z,1.20
2019-02-09T10:42:26.443Z,1.20
2019-02-09T10:47:31.911Z,1.17
2019-02-09T10:52:37.639Z,1.00
2019-02-09T10:57:44.090Z,1.32
2019-02-09T11:02:52.148Z,1.12
2019-02-09T11:07:56.699Z,1.30
2019-02-09T11:13:01.971Z,1.10
2019-02-09T11:18:08.148Z,1.23
2019-02-09T11:23:13.330Z,0.80
2019-02-09T11:28:18.513Z,1.00
2019-02-09T11:33:24.797Z,1.07
2019-02-09T11:38:30.935Z,1.07
2019-02-09T11:43:36.209Z,0.90
2019-02-09T11:48:41.672Z,0.90
2019-02-09T11:53:47.208Z,0.93
2019-02-09T11:58:52.623Z,0.90
2019-02-09T12:03:58.197Z,1.00
2019-02-09T12:09:05.244Z,1.13
2019-02-09T12:14:11.051Z,1.10
2019-02-09T12:19:16.231Z,1.00
2019-02-09T12:24:21.704Z,1.00
2019-02-09T12:29:27.681Z,1.10
2019-02-09T12:34:33.083Z,1.20
2019-02-09T12:39:38.284Z,1.10
2019-02-09T12:44:43.869Z,1.03
2019-02-09T12:49:49.057Z,1.30
2019-02-09T12:54:54.708Z,1.20
2019-02-09T13:00:01.275Z,1.10
2019-02-09T13:05:07.105Z,1.15
2019-02-09T13:10:13.135Z,1.10
2019-02-09T13:15:20.707Z,1.07
2019-02-09T13:20:27.076Z,1.37
2019-02-09T13:25:32.335Z,1.27
2019-02-09T13:30:38.935Z,1.27
2019-02-09T13:35:45.175Z,1.10
2019-02-09T13:40:51.171Z,1.40
2019-02-09T13:45:56.433Z,1.40
2019-02-09T13:51:02.768Z,1.22
2019-02-09T13:56:07.953Z,1.30
2019-02-09T14:01:13.912Z,1.30
2019-02-09T14:06:19.174Z,1.30
2019-02-09T14:11:24.844Z,1.40
2019-02-09T14:16:38.465Z,1.30
2019-02-09T14:21:40.077Z,1.27
2019-02-09T14:26:45.570Z,1.40
2019-02-09T14:31:50.865Z,1.47
2019-02-09T14:36:57.959Z,1.52
2019-02-09T14:42:03.222Z,1.70
2019-02-09T14:47:08.930Z,1.60
2019-02-09T14:52:14.665Z,1.50
2019-02-09T14:57:21.392Z,1.70
2019-02-09T15:02:27.672Z,1.40
2019-02-09T15:07:32.933Z,1.50
2019-02-09T15:12:38.538Z,1.40
2019-02-09T15:17:43.813Z,1.37
2019-02-09T15:22:49.705Z,1.60
2019-02-09T15:27:54.931Z,1.80
2019-02-09T15:33:01.312Z,1.72
2019-02-09T15:38:06.583Z,1.87
2019-02-09T15:43:11.764Z,1.90
2019-02-09T15:48:16.953Z,1.60
2019-02-09T15:53:22.488Z,1.65
2019-02-09T15:58:27.680Z,1.20
2019-02-09T16:03:33.195Z,1.43
2019-02-09T16:08:38.424Z,1.50
2019-02-09T16:13:45.810Z,1.90
2019-02-09T16:18:51.281Z,1.60
2019-02-09T16:23:57.435Z,2.00
2019-02-09T16:29:02.799Z,2.00
2019-02-09T16:34:08.010Z,2.10
2019-02-09T16:39:13.837Z,1.77
2019-02-09T16:44:19.865Z,2.07
2019-02-09T16:49:25.357Z,2.13
2019-02-09T16:54:30.740Z,2.20
2019-02-09T16:59:37.316Z,2.10
2019-02-09T17:04:42.493Z,1.83
2019-02-09T17:09:48.063Z,2.10
2019-02-09T17:14:53.557Z,2.00
2019-02-09T17:19:59.302Z,2.00
2019-02-09T17:25:07.655Z,2.40
2019-02-09T17:30:16.667Z,1.90
2019-02-09T17:35:22.010Z,2.00
2019-02-09T17:40:38.804Z,2.30
2019-02-09T17:45:50.049Z,1.90
2019-02-09T17:50:55.587Z,2.10
2019-02-09T17:56:01.522Z,2.33
2019-02-09T18:01:11.564Z,2.57
2019-02-09T18:06:17.195Z,2.57
2019-02-09T18:11:23.264Z,2.63
2019-02-09T18:16:28.444Z,2.07
2019-02-09T18:21:34.130Z,1.87
2019-02-09T18:26:39.335Z,2.20
2019-02-09T18:31:45.521Z,2.00
2019-02-09T18:36:51.008Z,2.03
2019-02-09T18:41:56.983Z,1.67
2019-02-09T18:47:02.939Z,2.00
2019-02-09T18:52:09.073Z,2.10
2019-02-09T18:57:14.248Z,1.70
2019-02-09T19:02:19.728Z,2.03
2019-02-09T19:07:25.349Z,2.00
2019-02-09T19:12:30.751Z,2.30
2019-02-09T19:17:37.442Z,1.70
2019-02-09T19:22:42.805Z,1.60
2019-02-09T19:27:48.085Z,1.73
2019-02-09T19:32:53.832Z,2.00
2019-02-09T19:37:59.036Z,1.80
2019-02-09T19:43:05.421Z,1.80
2019-02-09T19:48:11.447Z,1.30
2019-02-09T19:53:17.185Z,1.60
2019-02-09T19:58:22.355Z,1.87
2019-02-09T20:03:27.859Z,2.00
2019-02-09T20:08:34.508Z,1.70
2019-02-09T20:13:40.124Z,1.93
2019-02-09T20:18:45.656Z,1.90
2019-02-09T20:23:51.703Z,2.30
2019-02-09T20:28:56.969Z,2.30
2019-02-09T20:34:02.546Z,2.27
2019-02-09T20:39:09.987Z,2.00
2019-02-09T20:44:16.607Z,2.00
2019-02-09T20:49:21.811Z,1.80
2019-02-09T20:54:27.702Z,2.20
2019-02-09T20:59:33.379Z,2.23
2019-02-09T21:04:38.654Z,1.93
2019-02-09T21:09:44.304Z,2.20
2019-02-09T21:14:50.226Z,2.43
2019-02-09T21:19:56.657Z,1.90
2019-02-09T21:25:06.684Z,2.03
2019-02-09T21:30:15.108Z,2.20
2019-02-09T21:35:21.592Z,1.90
2019-02-09T21:40:27.877Z,1.97
2019-02-09T21:45:33.113Z,2.17
2019-02-09T21:50:38.783Z,2.00
2019-02-09T21:55:44.037Z,1.93
2019-02-09T22:00:49.214Z,1.97
2019-02-09T22:05:55.409Z,1.90
2019-02-09T22:11:00.584Z,1.90
2019-02-09T22:16:05.965Z,1.97
2019-02-09T22:21:12.292Z,2.00
2019-02-09T22:26:17.498Z,2.20
2019-02-09T22:31:22.744Z,2.10
2019-02-09T22:36:28.061Z,2.00
2019-02-09T22:41:33.746Z,2.20
2019-02-09T22:46:38.949Z,2.10
2019-02-09T22:51:44.689Z,2.40
2019-02-09T22:56:50.824Z,2.23
2019-02-09T23:01:56.786Z,1.80
2019-02-09T23:07:08.940Z,1.80
2019-02-09T23:12:14.221Z,2.00
2019-02-09T23:17:19.399Z,1.87
2019-02-09T23:22:24.921Z,2.10
2019-02-09T23:27:30.192Z,2.30
2019-02-09T23:32:35.648Z,2.30
2019-02-09T23:37:40.904Z,1.90
2019-02-09T23:42:46.462Z,2.10
2019-02-09T23:47:51.647Z,2.23
2019-02-09T23:52:57.167Z,2.10
2019-02-09T23:58:02.333Z,1.93
